Aérodrome :
LOGIN :

S'inscrire | Disclaimer

   EN    FR    IT 

 










Légende :    VFR   VFR Marginal   IFR   IFR Intensif   IFR Très Intensif
Visi : 
Plafond : 
>= 8 km
>= 3000ft
5 à 8 km
1000 à 3000 ft
1500m à 5 km
500 à 1000 ft
800 à 1500m
200 à 500 ft
< 800m
< 200 ft
Symboles :   Orages  Brouillard  Fortes neiges  Fortes précipitations  Vent > 20 kt
SIGMETs :   Divers  Orages  Givrage  Turbulence  Onde Orograph.  Cendres Volcan.






- Altitude de l'aérodrome : 776 ft
- Code IATA : RMS


ETAR - Ramstein Air Base

DERNIER METAR :
  • 041556Z AUTO 05006KT 9999 FEW090 SCT200 19/14 A2989 RMK AO2 SLP120 T01940136 $

METARs EXPIRÉS :
  • 041456Z AUTO 05004KT 9999 SCT090 19/14 A2990 RMK AO2 SLP124 T01930137 57005 $
  • 041356Z AUTO 04005KT 9999 FEW039 BKN055 BKN070 18/13 A2991 RMK AO2 SLP128 T01840133 $

TAF TAF ETAR
Valide du 04 à 10h jusqu'au 05 à 16h UTC


041000Z 0410/0516 25006KT 9999 SCT030 BKN050 QNH2992INS
BECMG 0413/0414 25006KT 9999 SCT020 QNH2988INS
BECMG 0501/0502 23006KT 9999 SCT020 BKN080 QNH2985INS
BECMG 0511/0512 23009KT 9999 -SHRA BKN030 OVC050 QNH2985INS TX21/0415Z TN12/0502Z



MET'MAP, la Météo Aéronautique d'un coup d'oeil ! - Copyright ORBIFLY Décembre 2007 - Disclaimer

ORBIFLY MET'MAP TEAM :

Programmation & Développement : Alexandra Zaïnal
Sur une idée originale de : Baudouin d'Aumeries
Assistance à la programmation : Marc-Olivier Méhu
Soutien technique & logistique : Manuel Goepfert

Contact : metmap@orbifly.com




SOURCES & CREDITS :

   NOAA